Time;durP1;ratioP1;P1;durP2;ratioP2;P2;SDS_P1;SDS_P2;PMS_P1;PMS_P2;Temp;Humidity;BMP_temperature;BMP_pressure;BME280_temperature;BME280_humidity;BME280_pressure;Samples;Min_cycle;Max_cycle;Signal;HPM_P1;HPM_P2
2023/04/25 00:00:25;;;;;;;16.35;6.43;;;;;;;;;;5049068;28;20036;-67
2023/04/25 00:02:50;;;;;;;13.70;7.00;;;;;;;;;;5046145;28;21069;-67
2023/04/25 00:05:16;;;;;;;13.63;6.38;;;;;;;;;;5053735;28;20085;-67
2023/04/25 00:07:44;;;;;;;20.15;7.45;;;;;;;;;;5052055;28;20870;-67
2023/04/25 00:10:11;;;;;;;20.13;7.00;;;;;;;;;;5034925;28;20028;-67
2023/04/25 00:12:37;;;;;;;20.95;6.85;;;;;;;;;;5047065;28;20081;-67
2023/04/25 00:15:03;;;;;;;16.92;6.65;;;;;;;;;;5032507;28;20030;-67
2023/04/25 00:17:28;;;;;;;20.13;6.32;;;;;;;;;;5045692;28;21016;-67
2023/04/25 00:19:53;;;;;;;14.23;6.47;;;;;;;;;;5052740;28;20085;-68
2023/04/25 00:22:19;;;;;;;24.90;7.78;;;;;;;;;;5052184;28;20921;-67
2023/04/25 00:24:44;;;;;;;14.63;6.78;;;;;;;;;;5052802;28;20896;-67
2023/04/25 00:27:09;;;;;;;17.45;6.68;;;;;;;;;;5044968;28;20043;-67
2023/04/25 00:29:34;;;;;;;14.73;6.35;;;;;;;;;;5053997;28;20024;-67
2023/04/25 00:32:00;;;;;;;17.98;7.32;;;;;;;;;;5057558;28;20063;-67
2023/04/25 00:34:25;;;;;;;22.20;7.32;;;;;;;;;;5055361;28;21119;-67
2023/04/25 00:36:51;;;;;;;15.68;6.40;;;;;;;;;;5049329;28;20843;-67
2023/04/25 00:39:16;;;;;;;13.70;6.07;;;;;;;;;;5051213;28;20088;-67
2023/04/25 00:41:41;;;;;;;17.60;7.15;;;;;;;;;;5044192;28;20055;-67
2023/04/25 00:44:09;;;;;;;16.30;6.80;;;;;;;;;;5057325;28;20035;-67
2023/04/25 00:46:35;;;;;;;10.77;5.85;;;;;;;;;;5057268;28;20027;-67
2023/04/25 00:49:00;;;;;;;17.45;7.00;;;;;;;;;;5055364;28;20028;-67
2023/04/25 00:51:26;;;;;;;18.42;6.18;;;;;;;;;;5046714;28;20153;-67
2023/04/25 00:53:51;;;;;;;20.05;6.88;;;;;;;;;;5047880;28;20028;-67
2023/04/25 00:56:17;;;;;;;18.60;6.60;;;;;;;;;;5055871;28;20038;-67
2023/04/25 00:58:42;;;;;;;16.13;6.68;;;;;;;;;;5057897;28;20060;-67
2023/04/25 01:01:09;;;;;;;15.63;6.25;;;;;;;;;;5056580;28;20822;-67
2023/04/25 01:03:40;;;;;;;21.00;6.78;;;;;;;;;;5057782;28;20100;-67
2023/04/25 01:06:06;;;;;;;14.45;6.65;;;;;;;;;;5056421;28;20024;-67
2023/04/25 01:08:31;;;;;;;16.48;6.53;;;;;;;;;;5056097;28;20020;-67
2023/04/25 01:10:56;;;;;;;14.95;6.72;;;;;;;;;;5053601;28;20073;-68
2023/04/25 01:13:21;;;;;;;27.55;7.30;;;;;;;;;;5055370;28;20040;-67
2023/04/25 01:15:47;;;;;;;17.25;6.60;;;;;;;;;;5056384;28;20036;-67
2023/04/25 01:18:12;;;;;;;16.77;5.63;;;;;;;;;;5055368;28;20977;-67
2023/04/25 01:20:38;;;;;;;16.00;6.20;;;;;;;;;;5041711;28;20020;-67
2023/04/25 01:23:03;;;;;;;17.85;7.13;;;;;;;;;;5052842;28;20893;-67
2023/04/25 01:25:30;;;;;;;13.00;5.70;;;;;;;;;;5055884;28;20020;-68
2023/04/25 01:27:55;;;;;;;14.43;6.50;;;;;;;;;;5056521;28;20131;-67
2023/04/25 01:30:21;;;;;;;14.48;6.07;;;;;;;;;;5056506;28;20438;-67
2023/04/25 01:32:46;;;;;;;16.73;6.35;;;;;;;;;;5056861;28;20024;-68
2023/04/25 01:35:12;;;;;;;16.58;6.70;;;;;;;;;;5055102;28;20899;-68
2023/04/25 01:37:41;;;;;;;17.02;6.07;;;;;;;;;;5056338;28;20039;-67
2023/04/25 01:40:07;;;;;;;17.58;6.30;;;;;;;;;;5054224;28;20038;-67
2023/04/25 01:42:33;;;;;;;14.23;6.55;;;;;;;;;;5054733;28;20059;-68
2023/04/25 01:44:59;;;;;;;18.20;6.75;;;;;;;;;;5048720;28;20024;-68
2023/04/25 01:47:24;;;;;;;19.85;6.53;;;;;;;;;;5054753;28;20058;-67
2023/04/25 01:49:49;;;;;;;14.65;6.70;;;;;;;;;;5055422;28;20042;-67
2023/04/25 01:52:15;;;;;;;16.13;6.32;;;;;;;;;;5054904;28;20070;-67
2023/04/25 01:54:43;;;;;;;13.90;6.25;;;;;;;;;;5055646;28;20019;-68
2023/04/25 01:57:09;;;;;;;20.55;7.43;;;;;;;;;;5051917;28;20032;-67
2023/04/25 01:59:34;;;;;;;19.05;8.07;;;;;;;;;;5057140;28;20465;-68
2023/04/25 02:02:03;;;;;;;17.90;7.28;;;;;;;;;;5056545;28;20028;-68
2023/04/25 02:04:28;;;;;;;23.02;7.57;;;;;;;;;;5047539;28;20036;-68
2023/04/25 02:06:53;;;;;;;20.42;7.53;;;;;;;;;;5052341;28;20088;-67
2023/04/25 02:09:19;;;;;;;18.80;8.00;;;;;;;;;;5055990;28;20903;-67
2023/04/25 02:11:45;;;;;;;15.15;7.32;;;;;;;;;;5053119;28;20028;-67
2023/04/25 02:14:10;;;;;;;21.75;7.72;;;;;;;;;;5029631;28;20127;-67
2023/04/25 02:16:35;;;;;;;19.75;6.88;;;;;;;;;;5051348;28;20862;-67
2023/04/25 02:19:00;;;;;;;17.48;7.72;;;;;;;;;;5054977;28;20207;-67
2023/04/25 02:21:26;;;;;;;19.67;8.35;;;;;;;;;;5054268;28;20034;-67
2023/04/25 02:23:51;;;;;;;20.33;7.35;;;;;;;;;;5050865;28;20041;-67
2023/04/25 02:26:17;;;;;;;19.98;8.13;;;;;;;;;;5047372;28;20039;-67
2023/04/25 02:28:42;;;;;;;13.52;7.63;;;;;;;;;;5052401;28;21156;-67
2023/04/25 02:31:07;;;;;;;18.00;7.28;;;;;;;;;;5055746;28;20047;-67
2023/04/25 02:33:32;;;;;;;24.00;7.95;;;;;;;;;;5035394;28;20065;-68
2023/04/25 02:35:58;;;;;;;14.55;6.75;;;;;;;;;;5055627;28;20919;-67
2023/04/25 02:38:23;;;;;;;19.33;7.90;;;;;;;;;;5048326;28;20123;-67
2023/04/25 02:40:48;;;;;;;18.35;7.68;;;;;;;;;;5045929;28;20042;-67
2023/04/25 02:43:14;;;;;;;19.40;6.88;;;;;;;;;;5041827;28;20028;-67
2023/04/25 02:45:39;;;;;;;14.00;6.43;;;;;;;;;;5054079;28;20926;-67
2023/04/25 02:48:04;;;;;;;24.23;8.27;;;;;;;;;;5051864;28;20020;-67
2023/04/25 02:50:30;;;;;;;12.70;7.20;;;;;;;;;;5055891;28;20032;-66
2023/04/25 02:52:55;;;;;;;15.75;7.57;;;;;;;;;;5051789;28;20550;-66
2023/04/25 02:55:20;;;;;;;19.35;6.97;;;;;;;;;;5044879;28;20066;-66
2023/04/25 02:57:45;;;;;;;17.00;8.30;;;;;;;;;;5054321;28;20902;-66
2023/04/25 03:00:11;;;;;;;17.40;7.30;;;;;;;;;;5054352;28;20046;-66
2023/04/25 03:02:36;;;;;;;15.23;7.85;;;;;;;;;;5056045;28;20889;-66
2023/04/25 03:05:03;;;;;;;17.40;7.60;;;;;;;;;;5055795;28;20788;-66
2023/04/25 03:07:28;;;;;;;23.50;7.95;;;;;;;;;;5056769;28;20534;-66
2023/04/25 03:09:53;;;;;;;14.25;7.88;;;;;;;;;;5039185;28;20036;-66
2023/04/25 03:12:18;;;;;;;15.98;8.07;;;;;;;;;;5038800;28;20036;-66
2023/04/25 03:14:44;;;;;;;15.07;7.22;;;;;;;;;;5055166;28;20016;-68
2023/04/25 03:17:10;;;;;;;21.00;8.20;;;;;;;;;;5057690;28;20125;-66
2023/04/25 03:19:35;;;;;;;16.17;8.02;;;;;;;;;;5058411;28;20848;-67
2023/04/25 03:22:00;;;;;;;16.52;8.20;;;;;;;;;;5058628;28;20031;-67
2023/04/25 03:24:26;;;;;;;18.15;8.52;;;;;;;;;;5058479;28;20862;-67
2023/04/25 03:26:52;;;;;;;19.40;8.00;;;;;;;;;;5059071;28;20291;-67
2023/04/25 03:29:17;;;;;;;17.67;8.98;;;;;;;;;;5058249;28;20782;-67
2023/04/25 03:31:42;;;;;;;22.60;7.95;;;;;;;;;;5058076;28;20122;-67
2023/04/25 03:34:08;;;;;;;22.35;9.30;;;;;;;;;;5056572;28;20040;-67
2023/04/25 03:36:33;;;;;;;15.40;8.55;;;;;;;;;;5056327;28;20766;-67
2023/04/25 03:38:58;;;;;;;16.35;8.45;;;;;;;;;;5058777;28;20139;-67
2023/04/25 03:41:24;;;;;;;23.92;8.88;;;;;;;;;;5056769;28;20028;-67
2023/04/25 03:43:50;;;;;;;30.02;8.93;;;;;;;;;;5058520;28;20028;-66
2023/04/25 03:46:15;;;;;;;13.57;8.65;;;;;;;;;;5057736;28;20023;-66
2023/04/25 03:48:40;;;;;;;26.42;9.20;;;;;;;;;;5057754;28;20883;-67
2023/04/25 03:51:05;;;;;;;23.33;9.07;;;;;;;;;;5054041;28;20028;-67
2023/04/25 03:53:31;;;;;;;18.42;9.13;;;;;;;;;;5048697;28;20032;-66
2023/04/25 03:55:56;;;;;;;15.32;8.13;;;;;;;;;;5055536;28;20023;-66
2023/04/25 03:58:23;;;;;;;21.92;9.77;;;;;;;;;;5056556;28;20592;-66
2023/04/25 04:00:48;;;;;;;22.73;8.90;;;;;;;;;;5050516;28;20098;-66
2023/04/25 04:03:14;;;;;;;29.85;10.75;;;;;;;;;;5044694;28;20028;-67
2023/04/25 04:05:40;;;;;;;23.42;9.63;;;;;;;;;;5060008;28;20024;-66
2023/04/25 04:08:05;;;;;;;20.95;9.15;;;;;;;;;;5056702;28;20035;-66
2023/04/25 04:10:31;;;;;;;18.83;9.27;;;;;;;;;;5055556;28;20563;-66
2023/04/25 04:12:56;;;;;;;17.95;8.75;;;;;;;;;;5046216;28;20064;-65
2023/04/25 04:15:21;;;;;;;21.20;9.98;;;;;;;;;;5048915;28;20135;-66
2023/04/25 04:17:47;;;;;;;22.52;9.52;;;;;;;;;;5055320;28;20142;-66
2023/04/25 04:20:13;;;;;;;18.67;9.00;;;;;;;;;;5058559;28;20024;-66
2023/04/25 04:22:38;;;;;;;21.77;9.10;;;;;;;;;;5056133;28;20888;-66
2023/04/25 04:25:05;;;;;;;23.48;9.27;;;;;;;;;;5057325;28;20038;-66
2023/04/25 04:27:30;;;;;;;16.30;9.35;;;;;;;;;;5054845;28;20024;-66
2023/04/25 04:29:57;;;;;;;24.88;8.32;;;;;;;;;;5051460;28;20104;-66
2023/04/25 04:32:23;;;;;;;20.42;8.88;;;;;;;;;;5050024;28;20161;-66
2023/04/25 04:34:48;;;;;;;17.13;9.00;;;;;;;;;;5051555;28;20032;-67
2023/04/25 04:37:14;;;;;;;19.83;9.00;;;;;;;;;;5050509;28;20954;-66
2023/04/25 04:39:39;;;;;;;19.02;9.10;;;;;;;;;;5051349;28;20020;-65
2023/04/25 04:42:05;;;;;;;20.20;9.00;;;;;;;;;;5052248;28;20035;-66
2023/04/25 04:44:32;;;;;;;16.10;7.65;;;;;;;;;;5053503;28;20023;-66
2023/04/25 04:46:57;;;;;;;17.20;8.48;;;;;;;;;;5052392;28;20025;-66
2023/04/25 04:49:23;;;;;;;21.35;8.50;;;;;;;;;;5040907;28;20058;-66
2023/04/25 04:51:49;;;;;;;17.08;8.20;;;;;;;;;;5052336;28;20024;-66
2023/04/25 04:54:14;;;;;;;21.38;9.57;;;;;;;;;;5038078;28;20031;-66
2023/04/25 04:56:41;;;;;;;11.65;8.00;;;;;;;;;;5034981;28;21097;-66
2023/04/25 04:59:07;;;;;;;18.13;8.38;;;;;;;;;;5045567;28;20564;-66
2023/04/25 05:01:32;;;;;;;20.30;8.68;;;;;;;;;;5045560;28;20027;-66
2023/04/25 05:04:00;;;;;;;22.08;8.50;;;;;;;;;;5044888;28;20903;-66
2023/04/25 05:06:25;;;;;;;17.98;8.65;;;;;;;;;;5045287;28;20920;-66
2023/04/25 05:08:50;;;;;;;26.42;8.27;;;;;;;;;;5047450;28;20036;-65
2023/04/25 05:11:16;;;;;;;24.13;8.68;;;;;;;;;;5040181;28;20020;-66
2023/04/25 05:13:41;;;;;;;19.85;9.25;;;;;;;;;;5030603;28;20178;-66
2023/04/25 05:16:06;;;;;;;25.63;9.70;;;;;;;;;;5035879;28;20115;-66
2023/04/25 05:18:31;;;;;;;15.43;7.28;;;;;;;;;;5046367;28;20917;-66
2023/04/25 05:20:57;;;;;;;18.77;8.52;;;;;;;;;;5047326;28;20084;-66
2023/04/25 05:23:22;;;;;;;27.40;9.00;;;;;;;;;;5046039;28;20853;-65
2023/04/25 05:25:47;;;;;;;17.83;8.00;;;;;;;;;;5047098;28;20067;-66
2023/04/25 05:28:13;;;;;;;24.75;7.95;;;;;;;;;;5041633;28;20859;-66
2023/04/25 05:30:38;;;;;;;20.77;8.07;;;;;;;;;;5046943;28;20036;-66
2023/04/25 05:33:03;;;;;;;15.38;8.20;;;;;;;;;;5046526;28;20090;-66
2023/04/25 05:35:28;;;;;;;18.40;7.90;;;;;;;;;;5041215;28;20079;-66
2023/04/25 05:37:54;;;;;;;18.83;7.88;;;;;;;;;;5046611;28;20922;-66
2023/04/25 05:40:19;;;;;;;20.45;7.80;;;;;;;;;;5039045;28;20028;-66
2023/04/25 05:42:44;;;;;;;16.25;8.45;;;;;;;;;;5043032;28;20903;-66
2023/04/25 05:45:10;;;;;;;19.80;8.07;;;;;;;;;;5046236;28;20028;-66
2023/04/25 05:47:35;;;;;;;19.85;8.00;;;;;;;;;;5046281;28;20146;-66
2023/04/25 05:50:00;;;;;;;18.05;6.82;;;;;;;;;;5045632;28;20015;-65
2023/04/25 05:52:26;;;;;;;21.23;8.15;;;;;;;;;;5036176;28;20021;-66
2023/04/25 05:54:51;;;;;;;25.88;8.88;;;;;;;;;;5037177;28;20089;-65
2023/04/25 05:57:23;;;;;;;20.48;8.27;;;;;;;;;;5044145;28;20085;-65
2023/04/25 05:59:49;;;;;;;21.58;8.52;;;;;;;;;;5045520;28;20024;-65
2023/04/25 06:02:14;;;;;;;25.00;8.38;;;;;;;;;;5044844;28;20078;-66
2023/04/25 06:04:39;;;;;;;18.20;8.10;;;;;;;;;;5034318;28;20074;-65
2023/04/25 06:07:04;;;;;;;26.90;9.43;;;;;;;;;;5040864;28;20031;-65
2023/04/25 06:09:30;;;;;;;21.58;8.98;;;;;;;;;;5035407;28;20028;-66
2023/04/25 06:11:55;;;;;;;15.57;7.90;;;;;;;;;;5045762;28;20135;-66
2023/04/25 06:14:20;;;;;;;24.35;7.15;;;;;;;;;;5045629;28;20911;-66
2023/04/25 06:16:46;;;;;;;14.63;6.95;;;;;;;;;;5045112;28;20024;-66
2023/04/25 06:19:11;;;;;;;15.48;7.43;;;;;;;;;;5044578;28;20024;-66
2023/04/25 06:21:36;;;;;;;23.63;7.80;;;;;;;;;;5069808;28;20463;-66
2023/04/25 06:24:01;;;;;;;15.32;6.47;;;;;;;;;;5091630;28;20086;-66
2023/04/25 06:26:27;;;;;;;18.85;6.70;;;;;;;;;;5081527;28;20027;-66
2023/04/25 06:28:52;;;;;;;14.18;5.90;;;;;;;;;;5090377;28;20024;-66
2023/04/25 06:31:17;;;;;;;17.00;6.50;;;;;;;;;;5089927;28;20020;-66
2023/04/25 06:33:42;;;;;;;14.23;5.60;;;;;;;;;;5091668;28;20059;-66
2023/04/25 06:36:08;;;;;;;17.92;6.70;;;;;;;;;;5090297;28;20024;-66
2023/04/25 06:38:34;;;;;;;15.57;6.45;;;;;;;;;;5089993;28;20351;-67
2023/04/25 06:40:59;;;;;;;13.15;6.10;;;;;;;;;;5088901;28;20095;-66
2023/04/25 06:43:25;;;;;;;14.77;6.20;;;;;;;;;;5054542;28;20076;-66
2023/04/25 06:45:50;;;;;;;15.57;5.43;;;;;;;;;;5090606;28;20020;-66
2023/04/25 06:48:16;;;;;;;17.67;6.20;;;;;;;;;;5086006;28;20159;-67
2023/04/25 06:50:41;;;;;;;17.83;5.95;;;;;;;;;;5080962;28;20046;-66
2023/04/25 06:53:08;;;;;;;18.67;6.40;;;;;;;;;;5090124;28;20039;-66
2023/04/25 06:55:34;;;;;;;17.85;5.38;;;;;;;;;;5085826;28;20097;-66
2023/04/25 06:57:59;;;;;;;11.27;4.80;;;;;;;;;;5079957;28;20020;-66
2023/04/25 07:00:25;;;;;;;13.88;5.45;;;;;;;;;;5078687;28;20035;-66
2023/04/25 07:02:51;;;;;;;8.95;4.88;;;;;;;;;;5091160;28;20070;-66
2023/04/25 07:05:16;;;;;;;11.00;5.35;;;;;;;;;;5089861;28;20094;-67
2023/04/25 07:07:41;;;;;;;12.88;5.47;;;;;;;;;;5085354;28;20020;-66
2023/04/25 07:10:06;;;;;;;11.32;4.80;;;;;;;;;;5060155;28;20028;-66
2023/04/25 07:12:32;;;;;;;13.70;4.50;;;;;;;;;;5043046;28;20032;-66
2023/04/25 07:14:57;;;;;;;13.45;5.57;;;;;;;;;;5043915;28;20865;-66
2023/04/25 07:17:22;;;;;;;14.50;4.90;;;;;;;;;;5044017;28;20032;-66
2023/04/25 07:19:48;;;;;;;11.35;4.63;;;;;;;;;;5043567;28;21048;-66
2023/04/25 07:22:13;;;;;;;15.18;4.93;;;;;;;;;;5041724;28;20078;-66
2023/04/25 07:24:38;;;;;;;14.95;5.20;;;;;;;;;;5045393;28;20030;-66
2023/04/25 07:27:04;;;;;;;17.10;5.07;;;;;;;;;;5042376;28;20028;-67
2023/04/25 07:29:30;;;;;;;9.60;4.65;;;;;;;;;;5043459;28;20055;-66
2023/04/25 07:31:55;;;;;;;12.32;4.95;;;;;;;;;;5043976;28;20128;-67
2023/04/25 07:34:21;;;;;;;10.57;5.05;;;;;;;;;;5043315;28;20858;-66
2023/04/25 07:36:46;;;;;;;14.45;5.28;;;;;;;;;;5030418;28;20039;-66
2023/04/25 07:39:11;;;;;;;15.57;3.67;;;;;;;;;;5033662;28;21003;-67
2023/04/25 07:41:37;;;;;;;12.82;4.57;;;;;;;;;;5043438;28;20077;-66
2023/04/25 07:44:02;;;;;;;13.63;4.45;;;;;;;;;;5044212;28;20066;-66
2023/04/25 07:46:27;;;;;;;13.15;4.70;;;;;;;;;;5035073;28;20424;-66
2023/04/25 07:48:53;;;;;;;16.98;4.45;;;;;;;;;;5042392;28;20881;-67
2023/04/25 07:51:19;;;;;;;12.45;5.07;;;;;;;;;;5041658;28;20020;-67
2023/04/25 07:53:45;;;;;;;10.80;4.68;;;;;;;;;;5043743;28;20023;-67
2023/04/25 07:56:10;;;;;;;8.82;4.10;;;;;;;;;;5045663;28;20016;-67
2023/04/25 07:58:35;;;;;;;9.10;3.78;;;;;;;;;;5045933;28;20024;-67
2023/04/25 08:01:01;;;;;;;9.60;4.00;;;;;;;;;;5049362;28;20016;-67
2023/04/25 08:03:26;;;;;;;12.50;4.70;;;;;;;;;;5046470;28;20098;-67
2023/04/25 08:05:51;;;;;;;16.25;4.07;;;;;;;;;;5046690;28;20047;-66
2023/04/25 08:08:16;;;;;;;11.60;3.58;;;;;;;;;;5028816;28;20060;-65
2023/04/25 08:10:42;;;;;;;11.95;4.10;;;;;;;;;;5036186;28;20142;-67
2023/04/25 08:13:07;;;;;;;13.75;4.20;;;;;;;;;;5047138;28;20094;-66
2023/04/25 08:15:32;;;;;;;13.23;4.45;;;;;;;;;;5036990;28;20725;-67
2023/04/25 08:17:58;;;;;;;10.05;3.35;;;;;;;;;;5043901;28;20034;-67
2023/04/25 08:20:23;;;;;;;8.60;3.40;;;;;;;;;;5049568;28;20118;-67
2023/04/25 08:22:48;;;;;;;12.30;3.28;;;;;;;;;;5047546;28;20146;-67
2023/04/25 08:25:14;;;;;;;12.15;5.25;;;;;;;;;;5043349;28;20048;-66
2023/04/25 08:27:39;;;;;;;13.02;3.63;;;;;;;;;;5052916;28;20131;-67
2023/04/25 08:30:05;;;;;;;18.50;4.60;;;;;;;;;;5037714;28;20024;-66
2023/04/25 08:32:30;;;;;;;12.18;3.85;;;;;;;;;;5044718;28;20017;-66
2023/04/25 08:34:56;;;;;;;11.43;3.47;;;;;;;;;;5047226;28;20755;-67
2023/04/25 08:37:21;;;;;;;9.88;4.13;;;;;;;;;;5046351;28;20093;-67
2023/04/25 08:39:48;;;;;;;9.23;3.63;;;;;;;;;;5047805;28;20265;-66
2023/04/25 08:42:14;;;;;;;18.05;3.40;;;;;;;;;;5043913;28;20032;-67
2023/04/25 08:44:39;;;;;;;6.18;2.83;;;;;;;;;;5044447;28;20050;-67
2023/04/25 08:47:05;;;;;;;11.50;3.65;;;;;;;;;;5039990;28;20790;-67
2023/04/25 08:49:34;;;;;;;9.68;3.67;;;;;;;;;;5044954;28;20022;-67
2023/04/25 08:52:00;;;;;;;11.73;3.70;;;;;;;;;;5044782;28;20935;-67
2023/04/25 08:54:27;;;;;;;11.63;4.45;;;;;;;;;;5045019;28;20225;-66
2023/04/25 08:56:53;;;;;;;7.57;3.33;;;;;;;;;;5046640;28;20126;-67
2023/04/25 08:59:19;;;;;;;10.20;3.83;;;;;;;;;;5041523;28;20032;-67
2023/04/25 09:01:45;;;;;;;11.45;3.00;;;;;;;;;;5043408;28;20016;-66
2023/04/25 09:04:11;;;;;;;11.68;3.53;;;;;;;;;;5044787;28;20928;-66
2023/04/25 09:06:37;;;;;;;6.50;3.40;;;;;;;;;;5059384;28;20024;-66
2023/04/25 09:09:06;;;;;;;9.80;3.75;;;;;;;;;;5045655;28;20042;-67
2023/04/25 09:11:32;;;;;;;10.40;3.33;;;;;;;;;;5039994;28;20028;-66
2023/04/25 09:14:10;;;;;;;10.20;3.53;;;;;;;;;;5051923;28;20027;-66
2023/04/25 09:16:35;;;;;;;11.35;3.85;;;;;;;;;;5044147;28;20875;-66
2023/04/25 09:19:00;;;;;;;9.15;2.38;;;;;;;;;;5041596;28;20113;-67
2023/04/25 09:21:27;;;;;;;15.60;3.95;;;;;;;;;;5044373;28;20012;-67
2023/04/25 09:23:52;;;;;;;10.57;3.17;;;;;;;;;;5044657;28;20033;-66
2023/04/25 09:26:18;;;;;;;8.95;3.00;;;;;;;;;;5033201;28;20081;-67
2023/04/25 09:28:45;;;;;;;14.80;3.45;;;;;;;;;;5041561;28;20121;-66
2023/04/25 09:31:13;;;;;;;17.95;3.22;;;;;;;;;;5048370;28;20020;-66
2023/04/25 09:33:40;;;;;;;10.73;3.17;;;;;;;;;;5032099;28;20140;-66
2023/04/25 09:36:09;;;;;;;7.93;2.90;;;;;;;;;;5045246;28;20032;-66
2023/04/25 09:38:42;;;;;;;6.90;2.70;;;;;;;;;;5046049;28;20039;-67
2023/04/25 09:41:08;;;;;;;12.55;3.17;;;;;;;;;;5043956;28;20024;-66
2023/04/25 09:43:33;;;;;;;7.07;2.50;;;;;;;;;;5044612;28;20016;-66
2023/04/25 09:46:00;;;;;;;7.65;2.60;;;;;;;;;;5045081;28;20127;-66
2023/04/25 09:48:26;;;;;;;6.80;2.35;;;;;;;;;;5045805;28;20142;-66
2023/04/25 09:51:05;;;;;;;8.45;2.63;;;;;;;;;;5044845;28;20119;-66
2023/04/25 09:53:31;;;;;;;11.43;2.40;;;;;;;;;;5039935;28;20025;-66
2023/04/25 09:55:59;;;;;;;9.85;3.42;;;;;;;;;;5037497;28;20062;-66
2023/04/25 09:58:25;;;;;;;6.78;2.60;;;;;;;;;;5040107;28;20032;-66
2023/04/25 10:00:54;;;;;;;7.65;2.17;;;;;;;;;;5045326;28;20047;-66
2023/04/25 10:03:20;;;;;;;8.00;3.05;;;;;;;;;;5048156;28;20031;-66
2023/04/25 10:05:46;;;;;;;14.68;3.83;;;;;;;;;;5042422;28;20051;-67
2023/04/25 10:08:12;;;;;;;11.23;3.30;;;;;;;;;;5044686;28;20058;-66
2023/04/25 10:10:39;;;;;;;5.13;2.28;;;;;;;;;;5043145;28;20024;-66
2023/04/25 10:13:05;;;;;;;7.93;3.08;;;;;;;;;;5039783;28;20117;-66
2023/04/25 10:15:32;;;;;;;10.45;3.22;;;;;;;;;;5038742;28;20816;-66
2023/04/25 10:17:58;;;;;;;9.05;2.80;;;;;;;;;;5049244;28;20499;-65
2023/04/25 10:20:23;;;;;;;6.88;2.97;;;;;;;;;;5046736;28;20020;-65
2023/04/25 10:22:53;;;;;;;9.80;2.53;;;;;;;;;;5035858;28;20031;-67
2023/04/25 10:25:19;;;;;;;11.55;2.72;;;;;;;;;;5045936;28;20040;-66
2023/04/25 10:27:45;;;;;;;7.75;2.72;;;;;;;;;;5037214;28;20027;-67
2023/04/25 10:30:14;;;;;;;9.18;2.58;;;;;;;;;;5041154;28;20093;-67
2023/04/25 10:32:41;;;;;;;6.90;2.47;;;;;;;;;;5044955;28;20133;-67
2023/04/25 10:35:26;;;;;;;7.13;2.20;;;;;;;;;;5042956;28;20143;-67
2023/04/25 10:38:00;;;;;;;9.80;2.60;;;;;;;;;;5031986;28;20059;-66
2023/04/25 10:40:25;;;;;;;;;;;;;;;;;;5040527;28;20912;-67
2023/04/25 10:42:55;;;;;;;6.53;3.00;;;;;;;;;;5058994;28;20289;-67
2023/04/25 10:45:21;;;;;;;5.82;2.80;;;;;;;;;;5048481;28;20026;-68
2023/04/25 10:47:46;;;;;;;9.25;3.30;;;;;;;;;;5033504;28;20029;-67
2023/04/25 10:50:12;;;;;;;5.97;2.67;;;;;;;;;;5030226;28;20109;-67
2023/04/25 10:52:40;;;;;;;8.07;2.85;;;;;;;;;;5044867;28;20036;-67
2023/04/25 10:55:06;;;;;;;4.57;2.00;;;;;;;;;;5059603;28;20058;-67
2023/04/25 10:57:31;;;;;;;5.72;1.83;;;;;;;;;;5043998;28;20031;-67
2023/04/25 11:00:05;;;;;;;9.80;2.17;;;;;;;;;;5043192;28;20039;-67
2023/04/25 11:02:31;;;;;;;7.55;2.60;;;;;;;;;;5049035;28;20128;-68
2023/04/25 11:04:56;;;;;;;11.02;2.35;;;;;;;;;;5042325;28;20818;-63
2023/04/25 11:07:37;;;;;;;12.02;2.22;;;;;;;;;;5044104;28;20008;-69
2023/04/25 11:10:04;;;;;;;8.38;2.30;;;;;;;;;;5048385;28;20020;-67
2023/04/25 11:12:30;;;;;;;9.35;2.65;;;;;;;;;;5046664;28;20020;-68
2023/04/25 11:15:00;;;;;;;8.57;2.13;;;;;;;;;;5039068;28;20154;-68
2023/04/25 11:17:26;;;;;;;5.55;2.55;;;;;;;;;;5040085;28;20759;-65
2023/04/25 11:19:51;;;;;;;5.50;2.10;;;;;;;;;;5048084;28;20054;-67
2023/04/25 11:22:16;;;;;;;4.55;2.20;;;;;;;;;;5041762;28;20219;-66
2023/04/25 11:24:42;;;;;;;8.43;2.38;;;;;;;;;;5032564;28;20816;-66
2023/04/25 11:27:08;;;;;;;11.10;3.00;;;;;;;;;;5039493;28;20028;-66
2023/04/25 11:29:34;;;;;;;6.30;2.83;;;;;;;;;;5057895;28;20036;-67
2023/04/25 11:32:00;;;;;;;5.68;2.35;;;;;;;;;;5047763;28;20024;-67
2023/04/25 11:34:26;;;;;;;9.35;2.63;;;;;;;;;;5048234;28;20020;-67
2023/04/25 11:36:52;;;;;;;5.45;2.47;;;;;;;;;;5049588;28;20036;-67
2023/04/25 11:39:18;;;;;;;6.53;2.65;;;;;;;;;;5047026;28;20467;-66
2023/04/25 11:41:43;;;;;;;7.68;3.17;;;;;;;;;;5046051;28;20028;-66
2023/04/25 11:44:08;;;;;;;4.90;2.08;;;;;;;;;;5047319;28;20024;-66
2023/04/25 11:46:34;;;;;;;13.25;3.92;;;;;;;;;;5044490;28;20415;-67
2023/04/25 11:48:59;;;;;;;7.82;2.55;;;;;;;;;;5045865;28;20055;-66
2023/04/25 11:51:26;;;;;;;7.82;2.85;;;;;;;;;;5051169;28;20873;-67
2023/04/25 11:53:51;;;;;;;4.65;2.17;;;;;;;;;;5048703;28;20047;-66
2023/04/25 11:56:17;;;;;;;7.65;2.60;;;;;;;;;;5054073;28;20808;-67
2023/04/25 11:58:58;;;;;;;13.50;3.17;;;;;;;;;;5049824;28;20116;-67
2023/04/25 12:01:27;;;;;;;9.82;2.53;;;;;;;;;;5041453;28;20883;-67
2023/04/25 12:03:52;;;;;;;6.20;2.58;;;;;;;;;;5034972;28;20134;-67
2023/04/25 12:06:18;;;;;;;4.35;1.70;;;;;;;;;;5045003;28;20026;-67
2023/04/25 12:08:59;;;;;;;3.65;2.03;;;;;;;;;;5044391;28;20031;-67
2023/04/25 12:11:24;;;;;;;9.80;2.90;;;;;;;;;;5044150;28;20031;-66
2023/04/25 12:13:52;;;;;;;6.80;2.10;;;;;;;;;;5042496;28;20031;-68
2023/04/25 12:16:17;;;;;;;6.18;2.50;;;;;;;;;;5043162;28;20028;-67
2023/04/25 12:18:42;;;;;;;9.55;1.95;;;;;;;;;;5046406;28;20870;-66
2023/04/25 12:21:09;;;;;;;6.38;2.05;;;;;;;;;;5046342;28;20042;-66
2023/04/25 12:23:38;;;;;;;4.40;2.10;;;;;;;;;;5047697;28;20054;-67
2023/04/25 12:26:03;;;;;;;4.63;2.15;;;;;;;;;;5045301;28;20322;-67
2023/04/25 12:28:31;;;;;;;7.95;1.90;;;;;;;;;;5042229;28;20016;-67
2023/04/25 12:30:58;;;;;;;4.85;2.10;;;;;;;;;;5047055;28;20928;-67
2023/04/25 12:33:24;;;;;;;5.43;2.00;;;;;;;;;;5049374;28;20146;-68
2023/04/25 12:35:49;;;;;;;4.18;1.65;;;;;;;;;;5048443;28;20066;-66
2023/04/25 12:38:21;;;;;;;5.47;1.55;;;;;;;;;;5046833;28;20031;-66
2023/04/25 12:40:46;;;;;;;3.60;1.63;;;;;;;;;;5048861;28;20031;-67
2023/04/25 12:43:12;;;;;;;5.00;1.75;;;;;;;;;;5039990;28;20051;-66
2023/04/25 12:45:37;;;;;;;4.13;1.83;;;;;;;;;;5046388;28;20036;-66
2023/04/25 12:48:02;;;;;;;6.53;1.92;;;;;;;;;;5045196;28;20833;-65
2023/04/25 12:50:28;;;;;;;8.98;2.47;;;;;;;;;;5046108;28;20059;-69
2023/04/25 12:52:53;;;;;;;5.53;1.83;;;;;;;;;;5036195;28;20024;-65
2023/04/25 12:55:18;;;;;;;7.28;2.50;;;;;;;;;;5035986;28;20862;-66
2023/04/25 12:57:43;;;;;;;7.15;2.08;;;;;;;;;;5046473;28;20055;-66
2023/04/25 13:00:14;;;;;;;4.63;1.60;;;;;;;;;;5037661;28;20085;-65
2023/04/25 13:02:39;;;;;;;6.13;1.90;;;;;;;;;;5046701;28;20030;-69
2023/04/25 13:05:05;;;;;;;5.57;2.10;;;;;;;;;;5043841;28;20857;-66
2023/04/25 13:07:30;;;;;;;4.10;1.70;;;;;;;;;;5048090;28;20039;-67
2023/04/25 13:09:56;;;;;;;4.68;1.85;;;;;;;;;;5045285;28;20016;-66
2023/04/25 13:12:21;;;;;;;3.95;1.60;;;;;;;;;;5047360;28;20062;-67
2023/04/25 13:14:46;;;;;;;3.92;1.55;;;;;;;;;;5049157;28;20024;-66
2023/04/25 13:17:11;;;;;;;6.13;1.85;;;;;;;;;;5040778;28;20044;-66
2023/04/25 13:19:38;;;;;;;3.50;1.67;;;;;;;;;;5046275;28;20028;-66
2023/04/25 13:22:04;;;;;;;4.30;1.05;;;;;;;;;;5047699;28;20168;-68
2023/04/25 13:24:29;;;;;;;10.40;2.20;;;;;;;;;;5047526;28;20902;-68
2023/04/25 13:26:55;;;;;;;5.10;1.48;;;;;;;;;;5027653;28;20063;-68
2023/04/25 13:29:20;;;;;;;5.65;1.75;;;;;;;;;;5047492;28;20378;-68
2023/04/25 13:31:45;;;;;;;3.50;1.55;;;;;;;;;;5046168;28;20123;-66
2023/04/25 13:34:12;;;;;;;4.65;1.38;;;;;;;;;;5045398;28;20081;-66
2023/04/25 13:36:37;;;;;;;4.38;1.45;;;;;;;;;;5045552;28;20460;-66
2023/04/25 13:39:04;;;;;;;4.47;1.60;;;;;;;;;;5044193;28;20522;-67
2023/04/25 13:41:29;;;;;;;3.97;1.67;;;;;;;;;;5046936;28;20032;-66
2023/04/25 13:43:55;;;;;;;11.55;2.13;;;;;;;;;;5045563;28;20032;-65
2023/04/25 13:46:20;;;;;;;5.13;1.80;;;;;;;;;;5045607;28;20032;-66
2023/04/25 13:48:48;;;;;;;6.18;2.38;;;;;;;;;;5047625;28;20071;-67
2023/04/25 13:51:14;;;;;;;5.65;1.52;;;;;;;;;;5022300;28;20026;-63
2023/04/25 13:53:39;;;;;;;4.88;2.28;;;;;;;;;;5044300;28;20016;-65
2023/04/25 13:56:05;;;;;;;5.45;1.70;;;;;;;;;;5042416;28;20874;-67
2023/04/25 13:58:30;;;;;;;3.80;1.60;;;;;;;;;;5043977;28;20028;-67
2023/04/25 14:00:56;;;;;;;2.92;1.42;;;;;;;;;;5051579;28;21005;-66
2023/04/25 14:03:21;;;;;;;4.68;1.60;;;;;;;;;;5040269;28;20016;-66
2023/04/25 14:05:46;;;;;;;15.48;1.50;;;;;;;;;;5050462;28;20263;-66
2023/04/25 14:08:11;;;;;;;4.07;1.60;;;;;;;;;;5044308;28;20073;-66
2023/04/25 14:10:37;;;;;;;4.43;1.48;;;;;;;;;;5043373;28;20035;-63
2023/04/25 14:13:03;;;;;;;6.90;1.95;;;;;;;;;;5035809;28;20133;-61
2023/04/25 14:15:28;;;;;;;3.08;1.55;;;;;;;;;;5048031;28;20037;-64
2023/04/25 14:17:54;;;;;;;2.15;1.05;;;;;;;;;;5025921;28;20031;-64
2023/04/25 14:20:21;;;;;;;8.43;1.33;;;;;;;;;;5044409;28;20024;-66
2023/04/25 14:22:46;;;;;;;4.18;1.40;;;;;;;;;;5050042;28;20024;-66
2023/04/25 14:25:11;;;;;;;5.68;2.00;;;;;;;;;;5043840;28;20048;-63